Time;durP1;ratioP1;P1;durP2;ratioP2;P2;SDS_P1;SDS_P2;PMS_P1;PMS_P2;Temp;Humidity;BMP_temperature;BMP_pressure;BME280_temperature;BME280_humidity;BME280_pressure;Samples;Min_cycle;Max_cycle;Signal;HPM_P1;HPM_P2
2024/01/22 00:01:33;;;;;;;8.48;4.13;;;;;;;8.22;100.00;100568.13;6082766;19;22269;-72
2024/01/22 00:03:39;;;;;;;10.85;5.68;;;;;;;8.27;100.00;100588.91;6087375;19;21588;-72
2024/01/22 00:05:44;;;;;;;9.70;4.70;;;;;;;8.28;100.00;100606.31;6090363;19;20042;-72
2024/01/22 00:07:49;;;;;;;11.20;5.05;;;;;;;8.23;100.00;100610.88;6083131;19;20015;-72
2024/01/22 00:09:57;;;;;;;7.70;4.80;;;;;;;8.27;100.00;100599.38;6087960;19;20082;-72
2024/01/22 00:12:02;;;;;;;9.25;4.70;;;;;;;8.28;100.00;100615.03;6090259;19;20007;-73
2024/01/22 00:14:08;;;;;;;8.95;3.97;;;;;;;8.38;100.00;100572.81;6086719;19;20911;-73
2024/01/22 00:16:15;;;;;;;9.00;4.65;;;;;;;8.36;100.00;100571.09;6086451;19;20006;-72
2024/01/22 00:18:20;;;;;;;11.57;4.53;;;;;;;8.42;100.00;100570.06;6087201;19;20584;-73
2024/01/22 00:20:27;;;;;;;12.52;5.00;;;;;;;8.41;100.00;100575.38;6084432;19;20281;-73
2024/01/22 00:22:32;;;;;;;12.27;4.78;;;;;;;8.46;100.00;100586.53;6084776;19;20377;-73
2024/01/22 00:24:37;;;;;;;8.07;4.95;;;;;;;8.44;100.00;100564.78;6087146;19;20018;-73
2024/01/22 00:26:44;;;;;;;7.15;4.13;;;;;;;8.45;100.00;100571.72;6089276;19;20573;-72
2024/01/22 00:28:47;;;;;;;9.38;4.22;;;;;;;8.32;100.00;100566.03;6089895;19;20014;-73
2024/01/22 00:30:52;;;;;;;8.02;4.22;;;;;;;8.39;100.00;100551.84;6086969;19;20011;-73
2024/01/22 00:32:57;;;;;;;6.68;3.63;;;;;;;8.41;100.00;100549.19;6091145;19;20467;-73
2024/01/22 00:35:02;;;;;;;11.02;3.83;;;;;;;8.41;100.00;100546.56;6085088;19;20086;-73
2024/01/22 00:37:08;;;;;;;14.57;5.45;;;;;;;8.49;100.00;100545.38;6086606;19;20010;-72
2024/01/22 00:39:11;;;;;;;8.85;5.03;;;;;;;8.48;100.00;100545.44;6087845;19;20010;-73
2024/01/22 00:41:16;;;;;;;9.80;5.53;;;;;;;8.47;100.00;100536.69;6086312;19;20429;-73
2024/01/22 00:43:23;;;;;;;9.82;4.57;;;;;;;8.56;100.00;100532.91;6087302;19;20677;-73
2024/01/22 00:45:31;;;;;;;7.72;4.55;;;;;;;8.63;100.00;100546.63;6086473;19;20129;-72
2024/01/22 00:47:36;;;;;;;10.18;4.88;;;;;;;8.70;100.00;100525.38;6089086;19;20007;-72
2024/01/22 00:49:41;;;;;;;9.80;3.80;;;;;;;8.72;100.00;100520.94;6089927;19;20049;-73
2024/01/22 00:51:47;;;;;;;9.82;4.38;;;;;;;8.67;100.00;100525.50;6081900;19;20006;-73
2024/01/22 00:53:52;;;;;;;10.57;4.88;;;;;;;8.64;100.00;100538.72;6084528;19;20074;-73
2024/01/22 00:55:57;;;;;;;7.03;4.13;;;;;;;8.72;100.00;100546.28;6087850;19;20005;-73
2024/01/22 00:58:02;;;;;;;6.50;3.83;;;;;;;8.73;100.00;100542.75;6086163;19;20419;-73
2024/01/22 01:00:13;;;;;;;7.88;3.92;;;;;;;8.72;100.00;100568.09;6081130;19;20007;-72
2024/01/22 01:02:19;;;;;;;5.55;3.33;;;;;;;8.81;100.00;100534.59;6087940;19;20365;-73
2024/01/22 01:04:24;;;;;;;7.00;3.10;;;;;;;8.80;100.00;100510.19;6086866;19;20485;-72
2024/01/22 01:06:29;;;;;;;10.95;3.83;;;;;;;8.72;100.00;100530.56;6081347;19;20010;-71
2024/01/22 01:08:34;;;;;;;8.15;4.07;;;;;;;8.73;100.00;100499.06;6087005;19;20017;-73
2024/01/22 01:10:42;;;;;;;6.88;3.63;;;;;;;8.76;100.00;100470.13;6083799;19;20539;-73
2024/01/22 01:12:47;;;;;;;9.13;3.78;;;;;;;8.84;100.00;100492.56;6085490;19;20026;-74
2024/01/22 01:14:50;;;;;;;7.57;3.88;;;;;;;8.83;100.00;100473.38;6082568;19;20049;-74
2024/01/22 01:16:58;;;;;;;;;;;;;;;8.71;100.00;100463.34;6089548;19;20522;-73
2024/01/22 01:19:03;;;;;;;6.40;3.33;;;;;;;8.83;100.00;100472.53;6087181;19;19914;-74
2024/01/22 01:21:09;;;;;;;6.82;3.30;;;;;;;8.92;100.00;100457.28;6081510;19;20071;-75
2024/01/22 01:23:11;;;;;;;7.13;4.00;;;;;;;8.96;100.00;100455.41;6084244;19;20293;-72
2024/01/22 01:25:17;;;;;;;7.68;3.58;;;;;;;9.00;100.00;100452.59;6084961;19;20010;-73
2024/01/22 01:27:22;;;;;;;6.85;3.35;;;;;;;9.10;100.00;100486.28;6078282;19;20005;-73
2024/01/22 01:29:27;;;;;;;10.70;4.05;;;;;;;9.05;100.00;100444.53;6079150;19;20014;-73
2024/01/22 01:31:32;;;;;;;7.05;3.30;;;;;;;9.14;100.00;100451.19;6085502;19;20010;-74
2024/01/22 01:33:39;;;;;;;8.48;2.90;;;;;;;9.19;100.00;100442.22;6083916;19;20010;-73
2024/01/22 01:35:45;;;;;;;6.40;3.28;;;;;;;9.19;100.00;100426.50;6082358;19;20372;-71
2024/01/22 01:37:51;;;;;;;5.43;3.58;;;;;;;9.22;100.00;100436.00;6081957;19;20504;-72
2024/01/22 01:39:55;;;;;;;5.78;3.33;;;;;;;9.27;100.00;100425.28;6083728;19;20027;-71
2024/01/22 01:42:00;;;;;;;8.13;3.70;;;;;;;9.26;100.00;100419.19;6082382;19;20491;-72
2024/01/22 01:44:06;;;;;;;5.82;3.30;;;;;;;9.33;100.00;100432.94;6080233;19;20023;-73
2024/01/22 01:46:10;;;;;;;3.60;2.60;;;;;;;9.43;100.00;100402.78;6082851;19;20011;-72
2024/01/22 01:48:16;;;;;;;5.93;2.70;;;;;;;9.36;100.00;100401.31;6082920;19;20169;-71
2024/01/22 01:50:24;;;;;;;7.80;2.92;;;;;;;9.29;100.00;100384.13;6080210;19;20025;-71
2024/01/22 01:52:26;;;;;;;8.30;2.90;;;;;;;9.27;100.00;100375.47;6083062;19;21644;-72
2024/01/22 01:54:32;;;;;;;4.93;2.63;;;;;;;9.30;100.00;100372.75;6082114;19;20007;-71
2024/01/22 01:56:40;;;;;;;5.32;2.78;;;;;;;9.33;100.00;100370.00;6081130;19;20006;-72
2024/01/22 01:58:43;;;;;;;7.25;2.85;;;;;;;9.43;100.00;100393.13;6082457;19;20333;-71
2024/01/22 02:00:50;;;;;;;3.88;2.13;;;;;;;9.36;100.00;100364.63;6083210;19;20486;-71
2024/01/22 02:02:55;;;;;;;7.05;2.70;;;;;;;9.34;100.00;100343.69;6083637;19;20041;-71
2024/01/22 02:05:01;;;;;;;10.40;3.58;;;;;;;9.32;100.00;100331.56;6079331;19;20752;-71
2024/01/22 02:07:09;;;;;;;5.05;2.78;;;;;;;9.27;100.00;100342.28;6081679;19;20078;-71
2024/01/22 02:09:14;;;;;;;5.28;3.15;;;;;;;9.29;100.00;100336.94;6084251;19;20079;-72
2024/01/22 02:11:21;;;;;;;4.88;3.00;;;;;;;9.31;100.00;100354.31;6082310;19;20006;-72
2024/01/22 02:13:28;;;;;;;5.75;2.83;;;;;;;9.22;100.00;100331.13;6081543;19;20007;-70
2024/01/22 02:15:33;;;;;;;5.90;3.15;;;;;;;9.25;100.00;100338.84;6084424;19;20011;-71
2024/01/22 02:17:38;;;;;;;4.68;2.95;;;;;;;9.21;100.00;100338.13;6084440;19;20015;-70
2024/01/22 02:19:41;;;;;;;4.65;2.65;;;;;;;9.16;100.00;100321.75;6082570;19;20451;-70
2024/01/22 02:21:47;;;;;;;4.68;2.88;;;;;;;9.17;100.00;100312.13;6082849;19;20006;-70
2024/01/22 02:23:54;;;;;;;4.72;2.42;;;;;;;9.22;100.00;100311.00;6084627;19;20018;-70
2024/01/22 02:25:59;;;;;;;7.10;3.63;;;;;;;9.23;100.00;100312.69;6080536;19;20011;-70
2024/01/22 02:28:04;;;;;;;6.30;3.63;;;;;;;9.22;100.00;100297.03;6081249;19;20070;-70
2024/01/22 02:30:10;;;;;;;6.32;3.13;;;;;;;9.17;100.00;100307.72;6084224;19;20006;-71
2024/01/22 02:32:13;;;;;;;7.05;3.20;;;;;;;9.23;100.00;100302.19;6081384;19;20003;-72
2024/01/22 02:34:18;;;;;;;4.85;2.50;;;;;;;9.33;100.00;100299.19;6080361;19;20007;-69
2024/01/22 02:36:23;;;;;;;4.68;2.35;;;;;;;9.33;100.00;100286.09;6082000;19;20014;-70
2024/01/22 02:38:31;;;;;;;6.43;2.70;;;;;;;9.41;100.00;100281.34;6084511;19;20038;-69
2024/01/22 02:40:39;;;;;;;3.85;2.25;;;;;;;9.41;100.00;100299.72;6076052;19;20018;-69
2024/01/22 02:42:44;;;;;;;4.13;2.78;;;;;;;9.49;100.00;100288.88;6080402;19;20467;-69
2024/01/22 02:44:47;;;;;;;4.35;2.47;;;;;;;9.56;100.00;100293.78;6081381;19;20022;-70
2024/01/22 02:46:51;;;;;;;5.35;2.88;;;;;;;9.51;100.00;100280.03;6085450;19;20003;-70
2024/01/22 02:48:54;;;;;;;6.22;3.03;;;;;;;9.54;100.00;100264.13;6075938;19;20622;-71
2024/01/22 02:50:59;;;;;;;5.05;2.70;;;;;;;9.59;100.00;100256.91;6083097;19;20022;-71
2024/01/22 02:53:04;;;;;;;4.75;2.58;;;;;;;9.49;100.00;100254.78;6079056;19;20014;-71
2024/01/22 02:55:09;;;;;;;4.30;2.25;;;;;;;9.63;100.00;100273.34;6079867;19;20015;-71
2024/01/22 02:57:17;;;;;;;3.60;2.67;;;;;;;9.60;100.00;100242.88;6081009;19;20002;-71
2024/01/22 02:59:22;;;;;;;4.60;2.40;;;;;;;9.65;100.00;100256.63;6080012;19;19998;-70
2024/01/22 03:01:24;;;;;;;5.18;2.25;;;;;;;9.65;100.00;100256.63;6082961;19;20701;-70
2024/01/22 03:03:29;;;;;;;2.95;2.10;;;;;;;9.63;100.00;100226.13;6080297;19;20748;-70
2024/01/22 03:05:34;;;;;;;5.85;2.92;;;;;;;9.57;100.00;100235.13;6077536;19;20010;-71
2024/01/22 03:07:39;;;;;;;3.13;2.25;;;;;;;9.54;100.00;100255.44;6079599;19;20391;-71
2024/01/22 03:09:45;;;;;;;4.07;2.25;;;;;;;9.58;100.00;100233.38;6083286;19;20018;-69
2024/01/22 03:11:47;;;;;;;3.30;2.30;;;;;;;9.61;100.00;100241.09;6075322;19;20006;-69
2024/01/22 03:13:55;;;;;;;4.60;2.55;;;;;;;9.60;100.00;100247.25;6083137;19;20007;-70
2024/01/22 03:15:57;;;;;;;4.00;2.42;;;;;;;9.57;100.00;100253.50;6083634;19;20055;-70
2024/01/22 03:18:02;;;;;;;8.68;2.33;;;;;;;9.67;100.00;100251.31;6081148;19;20023;-70
2024/01/22 03:20:09;;;;;;;3.53;1.90;;;;;;;9.71;100.00;100241.53;6082283;19;20486;-70
2024/01/22 03:22:14;;;;;;;2.97;2.00;;;;;;;9.62;100.00;100237.56;6081795;19;20024;-70
2024/01/22 03:24:18;;;;;;;2.47;2.10;;;;;;;9.68;100.00;100222.38;6082635;19;20013;-70
2024/01/22 03:26:25;;;;;;;4.05;2.47;;;;;;;9.66;100.00;100279.34;6078236;19;20035;-70
2024/01/22 03:28:30;;;;;;;4.90;2.53;;;;;;;9.59;100.00;100217.56;6083110;19;20410;-71
2024/01/22 03:30:38;;;;;;;5.43;2.97;;;;;;;9.61;100.00;100217.47;6082203;19;20014;-71
2024/01/22 03:32:43;;;;;;;2.95;2.05;;;;;;;9.59;100.00;100214.94;6081812;19;20006;-71
2024/01/22 03:34:47;;;;;;;2.42;2.03;;;;;;;9.64;100.00;100220.81;6072467;19;20038;-69
2024/01/22 03:36:52;;;;;;;6.70;2.42;;;;;;;9.69;100.00;100225.88;6077509;19;20033;-69
2024/01/22 03:38:55;;;;;;;2.67;2.10;;;;;;;9.68;100.00;100211.88;6082174;19;20068;-69
2024/01/22 03:41:00;;;;;;;3.88;1.80;;;;;;;9.61;100.00;100226.22;6074459;19;20017;-69
2024/01/22 03:43:05;;;;;;;3.33;2.10;;;;;;;9.68;100.00;100213.66;6079860;19;20062;-69
2024/01/22 03:45:10;;;;;;;3.55;1.90;;;;;;;9.62;100.00;100225.28;6082862;19;20015;-70
2024/01/22 03:47:18;;;;;;;3.38;2.13;;;;;;;9.59;100.00;100209.69;6075712;19;20058;-70
2024/01/22 03:49:23;;;;;;;4.38;2.60;;;;;;;9.64;100.00;100220.81;6081327;19;20014;-70
2024/01/22 03:51:29;;;;;;;4.45;1.88;;;;;;;9.70;100.00;100206.56;6080079;19;20010;-70
2024/01/22 03:53:34;;;;;;;4.50;2.10;;;;;;;9.70;100.00;100216.22;6077052;19;20456;-70
2024/01/22 03:55:43;;;;;;;3.08;2.20;;;;;;;9.62;100.00;100220.03;6079144;19;20932;-70
2024/01/22 03:57:45;;;;;;;9.50;3.10;;;;;;;9.65;100.00;100204.16;6082907;19;20498;-70
2024/01/22 03:59:50;;;;;;;4.45;2.13;;;;;;;9.68;100.00;100204.00;6080706;19;20010;-70
2024/01/22 04:01:57;;;;;;;1.98;1.77;;;;;;;9.67;100.00;100202.31;6077915;19;20011;-70
2024/01/22 04:04:05;;;;;;;4.15;2.42;;;;;;;9.71;100.00;100204.78;6081033;19;20217;-70
2024/01/22 04:06:11;;;;;;;3.88;2.15;;;;;;;9.74;100.00;100204.63;6082267;19;20390;-70
2024/01/22 04:08:16;;;;;;;2.47;1.95;;;;;;;9.77;100.00;100207.13;6080365;19;20345;-70
2024/01/22 04:10:21;;;;;;;4.65;2.00;;;;;;;9.72;100.00;100190.78;6079680;19;20496;-71
2024/01/22 04:12:26;;;;;;;5.60;2.53;;;;;;;9.85;100.00;100212.88;6088574;19;20003;-72
2024/01/22 04:14:31;;;;;;;3.03;2.08;;;;;;;9.82;100.00;100239.25;6088247;19;20006;-69
2024/01/22 04:16:36;;;;;;;5.30;2.47;;;;;;;9.73;100.00;100247.56;6082595;19;20347;-70
2024/01/22 04:18:43;;;;;;;4.85;2.40;;;;;;;9.72;100.00;100240.63;6085560;19;20023;-70
2024/01/22 04:20:51;;;;;;;2.80;1.98;;;;;;;9.78;100.00;100250.81;6085261;19;20003;-69
2024/01/22 04:22:56;;;;;;;5.15;2.25;;;;;;;9.76;100.00;100229.03;6085671;19;20459;-69
2024/01/22 04:25:01;;;;;;;2.72;2.17;;;;;;;9.79;100.00;100210.53;6081069;19;20626;-69
2024/01/22 04:27:06;;;;;;;5.03;2.20;;;;;;;9.79;100.00;100227.13;6086587;19;20018;-68
2024/01/22 04:29:11;;;;;;;2.88;2.03;;;;;;;9.81;100.00;100219.19;6084434;19;20015;-69
2024/01/22 04:31:16;;;;;;;3.60;2.42;;;;;;;9.75;100.00;100188.84;6082832;19;20066;-69
2024/01/22 04:33:21;;;;;;;3.83;1.95;;;;;;;9.75;100.00;100222.94;6084198;19;20010;-69
2024/01/22 04:35:26;;;;;;;4.32;2.30;;;;;;;9.71;100.00;100220.53;6087119;19;20029;-68
2024/01/22 04:37:33;;;;;;;2.45;1.77;;;;;;;9.70;100.00;100222.31;6084035;19;20002;-69
2024/01/22 04:39:41;;;;;;;5.45;1.85;;;;;;;9.68;100.00;100232.03;6082691;19;20014;-69
2024/01/22 04:41:47;;;;;;;2.22;1.65;;;;;;;9.69;100.00;100241.59;6084289;19;20639;-71
2024/01/22 04:43:52;;;;;;;4.90;2.22;;;;;;;9.70;100.00;100234.59;6084551;19;20649;-71
2024/01/22 04:45:57;;;;;;;3.70;2.10;;;;;;;9.70;100.00;100227.56;6084800;19;20047;-69
2024/01/22 04:48:02;;;;;;;4.18;2.33;;;;;;;9.70;100.00;100221.47;6086334;19;20013;-69
2024/01/22 04:50:08;;;;;;;4.45;2.25;;;;;;;9.65;100.00;100251.38;6085093;19;20027;-69
2024/01/22 04:52:14;;;;;;;5.60;2.00;;;;;;;9.66;100.00;100242.59;6087607;19;20503;-69
2024/01/22 04:54:22;;;;;;;3.20;2.00;;;;;;;9.61;100.00;100244.59;6078287;19;20006;-71
2024/01/22 04:56:27;;;;;;;2.65;1.95;;;;;;;9.62;100.00;100262.00;6085042;19;20003;-71
2024/01/22 04:58:32;;;;;;;2.90;1.98;;;;;;;9.63;100.00;100245.34;6085712;19;20019;-71
2024/01/22 05:00:40;;;;;;;2.08;1.80;;;;;;;9.66;100.00;100263.59;6082787;19;20014;-72
2024/01/22 05:02:45;;;;;;;2.80;2.08;;;;;;;9.61;100.00;100255.06;6081219;19;20557;-71
2024/01/22 05:04:50;;;;;;;4.95;2.30;;;;;;;9.61;100.00;100254.19;6080274;19;20018;-70
2024/01/22 05:06:55;;;;;;;2.78;1.92;;;;;;;9.61;100.00;100230.59;6084791;19;20027;-71
2024/01/22 05:08:58;;;;;;;5.45;2.20;;;;;;;9.63;100.00;100240.09;6081257;19;20705;-70
2024/01/22 05:11:06;;;;;;;3.42;2.10;;;;;;;9.64;100.00;100249.69;6085851;19;20654;-68
2024/01/22 05:13:08;;;;;;;3.25;2.20;;;;;;;9.72;100.00;100265.06;6085316;19;20107;-69
2024/01/22 05:15:13;;;;;;;5.00;2.65;;;;;;;9.68;100.00;100260.88;6083915;19;20700;-69
2024/01/22 05:17:18;;;;;;;6.63;3.40;;;;;;;9.68;100.00;100256.47;6082707;19;20598;-69
2024/01/22 05:19:23;;;;;;;5.18;2.50;;;;;;;9.79;100.00;100274.34;6083568;19;20017;-69
2024/01/22 05:21:29;;;;;;;4.35;2.47;;;;;;;9.84;100.00;100261.03;6083529;19;20027;-70
2024/01/22 05:23:31;;;;;;;6.22;3.08;;;;;;;9.91;100.00;100257.19;6084236;19;20010;-69
2024/01/22 05:25:36;;;;;;;13.95;3.20;;;;;;;9.94;100.00;100283.28;6081081;19;20070;-69
2024/01/22 05:27:47;;;;;;;5.28;2.42;;;;;;;10.03;100.00;100254.00;6084823;19;20499;-69
2024/01/22 05:29:52;;;;;;;8.95;2.88;;;;;;;10.01;100.00;100234.84;6084416;19;20017;-70
2024/01/22 05:31:57;;;;;;;5.60;2.33;;;;;;;10.13;100.00;100248.28;6080455;19;20007;-69
2024/01/22 05:34:02;;;;;;;4.72;2.40;;;;;;;10.21;100.00;100254.03;6087151;19;20019;-70
2024/01/22 05:36:08;;;;;;;4.53;2.50;;;;;;;10.26;100.00;100252.88;6085648;19;20379;-69
2024/01/22 05:38:14;;;;;;;7.18;2.92;;;;;;;10.32;100.00;100246.50;6083357;19;20637;-69
2024/01/22 05:40:19;;;;;;;8.23;2.38;;;;;;;10.35;100.00;100270.00;6084232;19;20041;-69
2024/01/22 05:42:27;;;;;;;9.65;2.38;;;;;;;10.37;100.00;100276.00;6085614;19;20011;-70
2024/01/22 05:44:34;;;;;;;4.18;2.28;;;;;;;10.39;100.00;100253.16;6082648;19;20098;-69
2024/01/22 05:46:40;;;;;;;4.00;1.92;;;;;;;10.39;100.00;100260.19;6081172;19;20013;-69
2024/01/22 05:48:45;;;;;;;7.68;2.55;;;;;;;10.52;100.00;100266.53;6084308;19;20514;-70
2024/01/22 05:50:50;;;;;;;7.00;1.90;;;;;;;10.57;100.00;100251.41;6085536;19;20077;-71
2024/01/22 05:52:56;;;;;;;16.88;3.50;;;;;;;10.54;100.00;100257.66;6078493;19;20013;-69
2024/01/22 05:55:01;;;;;;;9.10;3.05;;;;;;;10.65;100.00;100248.38;6080199;19;20031;-70
2024/01/22 05:57:06;;;;;;;10.82;2.63;;;;;;;10.68;100.00;100279.75;6085426;19;20662;-69
2024/01/22 05:59:11;;;;;;;12.35;2.72;;;;;;;10.71;100.00;100255.97;6081938;19;20487;-71
2024/01/22 06:01:26;;;;;;;13.52;2.13;;;;;;;10.70;100.00;100267.41;6080343;19;20311;-70
2024/01/22 06:03:31;;;;;;;11.57;2.88;;;;;;;10.64;100.00;100262.47;6084896;19;20011;-70
2024/01/22 06:05:37;;;;;;;13.98;2.72;;;;;;;10.71;100.00;100259.44;6081443;19;20014;-70
2024/01/22 06:07:42;;;;;;;16.63;3.75;;;;;;;10.77;100.00;100266.19;6084052;19;20010;-70
2024/01/22 06:09:47;;;;;;;15.20;3.47;;;;;;;10.76;100.00;100285.47;6083640;19;20010;-69
2024/01/22 06:12:05;;;;;;;13.55;3.13;;;;;;;10.83;100.00;100263.22;6084516;19;20006;-68
2024/01/22 06:14:10;;;;;;;16.67;2.97;;;;;;;10.83;100.00;100257.13;6085196;19;20007;-68
2024/01/22 06:16:13;;;;;;;12.23;3.20;;;;;;;10.76;100.00;100253.94;6082486;19;20002;-69
2024/01/22 06:18:21;;;;;;;13.90;3.30;;;;;;;10.76;100.00;100275.81;6083985;19;20539;-70
2024/01/22 06:20:26;;;;;;;14.25;3.20;;;;;;;10.78;100.00;100267.88;6083355;19;20371;-69
2024/01/22 06:22:33;;;;;;;14.32;2.53;;;;;;;10.77;100.00;100258.28;6080898;19;20056;-70
2024/01/22 06:24:38;;;;;;;16.92;3.47;;;;;;;10.83;100.00;100268.50;6083248;19;20014;-69
2024/01/22 06:26:41;;;;;;;13.43;3.35;;;;;;;10.82;100.00;100277.31;6084870;19;20475;-70
2024/01/22 06:28:47;;;;;;;11.13;3.33;;;;;;;10.94;100.00;100284.56;6084029;19;20470;-71
2024/01/22 06:30:53;;;;;;;14.63;3.25;;;;;;;10.88;100.00;100284.03;6080429;19;20038;-69
2024/01/22 06:32:57;;;;;;;16.77;3.42;;;;;;;10.88;100.00;100290.13;6081619;19;20569;-68
2024/01/22 06:35:06;;;;;;;16.13;3.40;;;;;;;10.83;100.00;100265.84;6085123;19;20414;-71
2024/01/22 06:37:11;;;;;;;24.38;4.18;;;;;;;11.00;100.00;100270.25;6077863;19;20081;-69
2024/01/22 06:39:16;;;;;;;21.48;4.60;;;;;;;11.02;100.00;100272.81;6083809;19;20043;-69
2024/01/22 06:41:23;;;;;;;19.13;4.05;;;;;;;10.99;100.00;100287.81;6084077;19;20006;-69
2024/01/22 06:43:31;;;;;;;25.70;4.18;;;;;;;10.97;100.00;100278.28;6082550;19;20471;-69
2024/01/22 06:45:36;;;;;;;15.80;4.07;;;;;;;10.96;100.00;100266.09;6081062;19;20046;-70
2024/01/22 06:47:39;;;;;;;21.80;4.97;;;;;;;10.97;100.00;100276.50;6085664;19;20024;-70
2024/01/22 06:49:44;;;;;;;24.50;4.32;;;;;;;10.95;100.00;100278.38;6082379;19;20014;-70
2024/01/22 06:51:52;;;;;;;18.13;4.15;;;;;;;10.94;100.00;100284.56;6080377;19;20014;-71
2024/01/22 06:53:58;;;;;;;21.52;5.80;;;;;;;10.88;100.00;100295.41;6081453;19;20081;-70
2024/01/22 06:56:03;;;;;;;17.40;4.30;;;;;;;10.85;100.00;100285.03;6083808;19;20375;-70
2024/01/22 06:58:08;;;;;;;21.13;4.70;;;;;;;10.84;100.00;100295.63;6085576;19;20014;-70
2024/01/22 07:00:15;;;;;;;23.77;5.03;;;;;;;10.77;100.00;100297.72;6079637;19;20018;-70
2024/01/22 07:02:21;;;;;;;24.60;4.28;;;;;;;10.74;100.00;100301.34;6083036;19;20018;-70
2024/01/22 07:04:26;;;;;;;23.38;5.30;;;;;;;10.84;100.00;100295.63;6084127;19;20042;-70
2024/01/22 07:06:31;;;;;;;24.45;5.57;;;;;;;10.84;100.00;100306.97;6080717;19;20018;-70
2024/01/22 07:08:39;;;;;;;17.75;4.47;;;;;;;10.85;100.00;100294.69;6082671;19;20051;-70
2024/01/22 07:10:44;;;;;;;33.85;6.32;;;;;;;10.79;100.00;100293.22;6083697;19;20105;-71
2024/01/22 07:12:49;;;;;;;36.22;7.38;;;;;;;10.81;100.00;100287.88;6082542;19;20347;-71
2024/01/22 07:14:51;;;;;;;23.50;6.35;;;;;;;10.80;100.00;100310.69;6077475;19;20496;-71
2024/01/22 07:16:57;;;;;;;18.80;3.95;;;;;;;10.79;100.00;100305.50;6082956;19;20027;-70
2024/01/22 07:19:02;;;;;;;28.17;5.45;;;;;;;10.82;100.00;100308.84;6084373;19;20027;-70
2024/01/22 07:21:11;;;;;;;22.13;4.75;;;;;;;10.77;100.00;100302.97;6077179;19;20011;-70
2024/01/22 07:23:16;;;;;;;19.55;4.57;;;;;;;10.81;100.00;100320.28;6080768;19;20018;-70
2024/01/22 07:25:26;;;;;;;24.25;4.82;;;;;;;10.74;100.00;100300.47;6082437;19;20006;-69
2024/01/22 07:27:29;;;;;;;26.30;4.57;;;;;;;10.76;100.00;100319.66;6084207;19;20003;-71
2024/01/22 07:29:35;;;;;;;28.52;5.25;;;;;;;10.75;100.00;100303.03;6077364;19;20077;-69
2024/01/22 07:31:44;;;;;;;25.83;5.72;;;;;;;10.76;100.00;100314.41;6081852;19;20046;-69
2024/01/22 07:33:49;;;;;;;27.67;5.72;;;;;;;10.71;100.00;100326.91;6083391;19;20014;-69
2024/01/22 07:35:56;;;;;;;34.83;5.82;;;;;;;10.54;100.00;100325.97;6081658;19;20006;-69
2024/01/22 07:38:02;;;;;;;23.05;4.95;;;;;;;10.44;100.00;100337.00;6080860;19;20415;-70
2024/01/22 07:40:09;;;;;;;21.63;4.60;;;;;;;10.36;100.00;100334.72;6083496;19;20070;-70
2024/01/22 07:42:17;;;;;;;22.40;5.13;;;;;;;10.34;100.00;100344.44;6082820;19;20078;-70
2024/01/22 07:44:22;;;;;;;24.60;4.57;;;;;;;10.29;100.00;100349.94;6078269;19;20472;-70
2024/01/22 07:46:28;;;;;;;16.27;4.05;;;;;;;10.27;100.00;100345.66;6086923;19;20051;-70
2024/01/22 07:48:33;;;;;;;22.48;5.72;;;;;;;10.32;100.00;100352.41;6085842;19;20010;-70
2024/01/22 07:50:39;;;;;;;24.73;4.40;;;;;;;10.27;100.00;100356.16;6086944;19;20009;-70
2024/01/22 07:52:45;;;;;;;25.08;4.43;;;;;;;10.26;100.00;100365.78;6078504;19;20033;-70
2024/01/22 07:54:52;;;;;;;28.63;6.97;;;;;;;10.19;100.00;100372.28;6083892;19;20365;-70
2024/01/22 07:56:57;;;;;;;38.40;6.75;;;;;;;10.13;100.00;100377.78;6086186;19;20002;-70
2024/01/22 07:59:05;;;;;;;28.38;5.38;;;;;;;10.08;100.00;100387.63;6081719;19;20638;-70
2024/01/22 08:01:10;;;;;;;20.02;4.15;;;;;;;10.03;100.00;100381.75;6086558;19;20598;-70
2024/01/22 08:03:15;;;;;;;21.58;4.72;;;;;;;10.01;100.00;100397.59;6085411;19;20728;-70
2024/01/22 08:05:20;;;;;;;27.75;6.25;;;;;;;10.00;100.00;100411.63;6082353;19;20010;-70
2024/01/22 08:07:25;;;;;;;24.25;6.18;;;;;;;9.99;100.00;100411.69;6080566;19;20010;-71
2024/01/22 08:09:30;;;;;;;25.75;5.93;;;;;;;9.99;100.00;100411.69;6086296;19;20017;-69
2024/01/22 08:11:35;;;;;;;33.13;6.97;;;;;;;9.99;100.00;100432.69;6083985;19;20015;-69
2024/01/22 08:13:41;;;;;;;25.42;5.65;;;;;;;9.96;100.00;100401.34;6082126;19;20427;-71
2024/01/22 08:15:49;;;;;;;33.33;5.35;;;;;;;9.92;100.00;100421.59;6082564;19;20095;-71
2024/01/22 08:17:54;;;;;;;25.35;5.35;;;;;;;9.86;100.00;100417.47;6087379;19;20010;-70
2024/01/22 08:19:59;;;;;;;26.42;6.25;;;;;;;9.80;100.00;100424.78;6081947;19;20005;-70
2024/01/22 08:22:04;;;;;;;38.22;6.47;;;;;;;9.76;100.00;100423.22;6082297;19;20003;-70
2024/01/22 08:24:10;;;;;;;25.30;5.50;;;;;;;9.70;100.00;100431.34;6086273;19;20006;-70
2024/01/22 08:26:15;;;;;;;38.78;6.35;;;;;;;9.67;100.00;100442.84;6084229;19;20475;-69
2024/01/22 08:28:20;;;;;;;40.63;6.85;;;;;;;9.63;100.00;100443.88;6082602;19;20006;-70
2024/01/22 08:30:25;;;;;;;37.47;6.65;;;;;;;9.57;100.00;100445.00;6085865;19;19998;-70
2024/01/22 08:32:33;;;;;;;31.75;7.30;;;;;;;9.57;100.00;100462.50;6084290;19;20077;-69
2024/01/22 08:34:38;;;;;;;28.67;5.78;;;;;;;9.50;100.00;100458.44;6084421;19;20082;-69
2024/01/22 08:36:44;;;;;;;31.23;6.28;;;;;;;9.48;100.00;100450.66;6087362;19;20010;-69
2024/01/22 08:38:46;;;;;;;21.42;5.03;;;;;;;9.47;100.00;100456.78;6086915;19;20019;-69
2024/01/22 08:40:51;;;;;;;25.38;4.97;;;;;;;9.42;100.00;100453.50;6084024;19;20014;-69
2024/01/22 08:42:58;;;;;;;30.42;6.32;;;;;;;9.41;100.00;100468.38;6084451;19;20003;-69
2024/01/22 08:45:03;;;;;;;32.80;6.15;;;;;;;9.35;100.00;100473.06;6087436;19;20023;-69
2024/01/22 08:47:08;;;;;;;27.80;5.30;;;;;;;9.34;100.00;100487.91;6083825;19;20013;-69
2024/01/22 08:49:15;;;;;;;34.92;7.15;;;;;;;9.32;100.00;100494.13;6078303;19;20126;-70
2024/01/22 08:51:20;;;;;;;27.98;5.35;;;;;;;9.29;100.00;100482.00;6086903;19;20038;-69
2024/01/22 08:53:25;;;;;;;27.17;5.88;;;;;;;9.27;100.00;100485.59;6080171;19;20006;-70
2024/01/22 08:55:30;;;;;;;31.23;6.10;;;;;;;9.19;100.00;100478.91;6081815;19;20082;-70
2024/01/22 08:57:35;;;;;;;26.85;6.57;;;;;;;9.14;100.00;100493.97;6080296;19;20011;-70
2024/01/22 08:59:41;;;;;;;28.10;4.50;;;;;;;9.08;100.00;100486.34;6085354;19;20091;-71
2024/01/22 09:01:46;;;;;;;21.08;4.38;;;;;;;9.04;100.00;100499.66;6088028;19;20639;-69
2024/01/22 09:03:48;;;;;;;28.20;4.25;;;;;;;9.01;100.00;100503.25;6082755;19;20011;-71
2024/01/22 09:05:56;;;;;;;19.77;4.90;;;;;;;9.00;100.00;100512.00;6083119;19;20006;-71
2024/01/22 09:08:01;;;;;;;26.27;4.95;;;;;;;8.95;100.00;100519.19;6084580;19;20034;-69
2024/01/22 09:10:08;;;;;;;15.57;3.40;;;;;;;8.93;100.00;100531.53;6086840;19;20438;-69
2024/01/22 09:12:13;;;;;;;17.88;3.42;;;;;;;8.89;100.00;100522.06;6081936;19;20006;-72
2024/01/22 09:14:18;;;;;;;20.38;4.43;;;;;;;8.81;100.00;100531.97;6085315;19;20017;-71
2024/01/22 09:16:23;;;;;;;19.90;4.47;;;;;;;8.82;100.00;100538.91;6082766;19;20026;-71
2024/01/22 09:18:29;;;;;;;11.10;2.70;;;;;;;8.73;100.00;100529.66;6085173;19;20347;-70
2024/01/22 09:20:31;;;;;;;13.70;4.38;;;;;;;8.76;100.00;100547.88;6081975;19;20046;-70
2024/01/22 09:22:39;;;;;;;24.30;4.03;;;;;;;8.74;100.00;100547.94;6085826;19;20324;-70
2024/01/22 09:24:44;;;;;;;18.38;3.75;;;;;;;8.72;100.00;100552.38;6086040;19;20014;-69
2024/01/22 09:26:49;;;;;;;9.48;3.03;;;;;;;8.74;100.00;100547.94;6080419;19;20017;-69
2024/01/22 09:28:54;;;;;;;14.48;4.00;;;;;;;8.73;100.00;100537.50;6085443;19;20106;-69
2024/01/22 09:31:00;;;;;;;25.90;4.25;;;;;;;8.71;100.00;100566.38;6086895;19;20530;-69
2024/01/22 09:33:05;;;;;;;16.05;2.95;;;;;;;8.68;100.00;100568.25;6084606;19;20018;-71
2024/01/22 09:35:11;;;;;;;19.13;3.42;;;;;;;8.68;100.00;100571.72;6083137;19;20007;-71
2024/01/22 09:37:16;;;;;;;14.90;3.10;;;;;;;8.74;100.00;100568.03;6084996;19;20010;-71
2024/01/22 09:39:25;;;;;;;16.52;3.95;;;;;;;8.75;100.00;100557.50;6087158;19;20025;-69